sensor_id;sensor_type;location;lat;lon;timestamp;pressure;altitude;pressure_sealevel;temperature;humidity
66196;BME280;53000;45.182;5.736;2023-05-24T00:00:07;99140.75;;;19.84;67.49
66196;BME280;53000;45.182;5.736;2023-05-24T00:02:37;99154.75;;;19.82;68.24
66196;BME280;53000;45.182;5.736;2023-05-24T00:05:02;99152.44;;;19.79;68.00
66196;BME280;53000;45.182;5.736;2023-05-24T00:07:27;99164.53;;;19.78;68.37
66196;BME280;53000;45.182;5.736;2023-05-24T00:09:53;99165.56;;;19.77;68.40
66196;BME280;53000;45.182;5.736;2023-05-24T00:12:18;99161.56;;;19.79;67.89
66196;BME280;53000;45.182;5.736;2023-05-24T00:14:44;99171.44;;;19.80;68.25
66196;BME280;53000;45.182;5.736;2023-05-24T00:17:09;99168.22;;;19.84;68.02
66196;BME280;53000;45.182;5.736;2023-05-24T00:19:35;99169.69;;;19.86;68.10
66196;BME280;53000;45.182;5.736;2023-05-24T00:22:02;99170.03;;;19.90;67.92
66196;BME280;53000;45.182;5.736;2023-05-24T00:24:27;99161.09;;;19.94;67.58
66196;BME280;53000;45.182;5.736;2023-05-24T00:26:53;99164.72;;;19.95;68.14
66196;BME280;53000;45.182;5.736;2023-05-24T00:29:18;99157.91;;;19.97;67.95
66196;BME280;53000;45.182;5.736;2023-05-24T00:31:43;99159.34;;;20.00;67.38
66196;BME280;53000;45.182;5.736;2023-05-24T00:34:09;99166.28;;;20.02;66.35
66196;BME280;53000;45.182;5.736;2023-05-24T00:36:34;99166.16;;;19.97;66.68
66196;BME280;53000;45.182;5.736;2023-05-24T00:39:02;99160.28;;;19.94;66.62
66196;BME280;53000;45.182;5.736;2023-05-24T00:41:28;99160.38;;;19.87;66.77
66196;BME280;53000;45.182;5.736;2023-05-24T00:43:53;99160.25;;;19.82;67.39
66196;BME280;53000;45.182;5.736;2023-05-24T00:46:21;99157.94;;;19.79;67.42
66196;BME280;53000;45.182;5.736;2023-05-24T00:48:50;99154.38;;;19.78;66.84
66196;BME280;53000;45.182;5.736;2023-05-24T00:51:15;99152.44;;;19.79;66.41
66196;BME280;53000;45.182;5.736;2023-05-24T00:53:44;99146.59;;;19.75;66.01
66196;BME280;53000;45.182;5.736;2023-05-24T00:56:12;99145.13;;;19.73;65.83
66196;BME280;53000;45.182;5.736;2023-05-24T00:58:37;99145.63;;;19.70;66.01
66196;BME280;53000;45.182;5.736;2023-05-24T01:01:03;99146.44;;;19.70;65.99
66196;BME280;53000;45.182;5.736;2023-05-24T01:03:29;99143.06;;;19.68;66.09
66196;BME280;53000;45.182;5.736;2023-05-24T01:05:56;99151.28;;;19.68;66.01
66196;BME280;53000;45.182;5.736;2023-05-24T01:11:20;99151.94;;;19.70;65.81
66196;BME280;53000;45.182;5.736;2023-05-24T01:13:53;99143.88;;;19.69;65.68
66196;BME280;53000;45.182;5.736;2023-05-24T01:16:25;99143.06;;;19.68;65.78
66196;BME280;53000;45.182;5.736;2023-05-24T01:18:56;99141.84;;;19.64;65.99
66196;BME280;53000;45.182;5.736;2023-05-24T01:24:43;99151.63;;;19.60;65.75
66196;BME280;53000;45.182;5.736;2023-05-24T01:27:16;99154.63;;;19.58;66.09
66196;BME280;53000;45.182;5.736;2023-05-24T01:29:42;99151.38;;;19.61;65.77
66196;BME280;53000;45.182;5.736;2023-05-24T01:32:07;99149.25;;;19.64;65.86
66196;BME280;53000;45.182;5.736;2023-05-24T01:34:33;99152.59;;;19.66;66.11
66196;BME280;53000;45.182;5.736;2023-05-24T01:37:01;99137.81;;;19.67;65.90
66196;BME280;53000;45.182;5.736;2023-05-24T01:39:28;99150.47;;;19.68;65.91
66196;BME280;53000;45.182;5.736;2023-05-24T01:44:35;99149.78;;;19.72;65.56
66196;BME280;53000;45.182;5.736;2023-05-24T01:49:55;99156.38;;;19.71;66.13
66196;BME280;53000;45.182;5.736;2023-05-24T01:52:22;99164.19;;;19.68;65.49
66196;BME280;53000;45.182;5.736;2023-05-24T01:54:55;99151.28;;;19.68;65.66
66196;BME280;53000;45.182;5.736;2023-05-24T01:57:21;99156.59;;;19.70;65.64
66196;BME280;53000;45.182;5.736;2023-05-24T01:59:48;99151.09;;;19.70;65.56
66196;BME280;53000;45.182;5.736;2023-05-24T02:02:14;99141.56;;;19.72;65.41
66196;BME280;53000;45.182;5.736;2023-05-24T02:04:40;99141.34;;;19.74;65.33
66196;BME280;53000;45.182;5.736;2023-05-24T02:07:05;99151.22;;;19.75;64.93
66196;BME280;53000;45.182;5.736;2023-05-24T02:09:31;99147.06;;;19.72;65.14
66196;BME280;53000;45.182;5.736;2023-05-24T02:11:57;99141.34;;;19.74;65.13
66196;BME280;53000;45.182;5.736;2023-05-24T02:14:22;99139.41;;;19.74;65.00
66196;BME280;53000;45.182;5.736;2023-05-24T02:16:48;99132.41;;;19.78;64.64
66196;BME280;53000;45.182;5.736;2023-05-24T02:19:15;99128.00;;;19.77;64.40
66196;BME280;53000;45.182;5.736;2023-05-24T02:21:41;99125.47;;;19.76;64.52
66196;BME280;53000;45.182;5.736;2023-05-24T02:24:07;99130.13;;;19.75;64.58
66196;BME280;53000;45.182;5.736;2023-05-24T02:26:35;99124.25;;;19.72;64.03
66196;BME280;53000;45.182;5.736;2023-05-24T02:29:01;99121.94;;;19.69;64.52
66196;BME280;53000;45.182;5.736;2023-05-24T02:31:26;99126.22;;;19.65;64.97
66196;BME280;53000;45.182;5.736;2023-05-24T02:33:54;99120.22;;;19.56;64.68
66196;BME280;53000;45.182;5.736;2023-05-24T02:36:19;99126.38;;;19.51;64.98
66196;BME280;53000;45.182;5.736;2023-05-24T02:38:48;99124.13;;;19.48;65.02
66196;BME280;53000;45.182;5.736;2023-05-24T02:41:13;99118.03;;;19.46;65.13
66196;BME280;53000;45.182;5.736;2023-05-24T02:43:45;99116.72;;;19.49;64.71
66196;BME280;53000;45.182;5.736;2023-05-24T02:46:11;99103.59;;;19.51;65.02
66196;BME280;53000;45.182;5.736;2023-05-24T02:48:37;99096.78;;;19.53;65.23
66196;BME280;53000;45.182;5.736;2023-05-24T02:51:02;99099.44;;;19.60;65.06
66196;BME280;53000;45.182;5.736;2023-05-24T02:53:28;99108.06;;;19.64;65.10
66196;BME280;53000;45.182;5.736;2023-05-24T02:55:53;99105.09;;;19.65;65.09
66196;BME280;53000;45.182;5.736;2023-05-24T02:58:19;99098.78;;;19.65;65.26
66196;BME280;53000;45.182;5.736;2023-05-24T03:00:44;99096.34;;;19.56;64.86
66196;BME280;53000;45.182;5.736;2023-05-24T03:03:10;99098.59;;;19.48;65.15
66196;BME280;53000;45.182;5.736;2023-05-24T03:05:35;99091.28;;;19.41;66.17
66196;BME280;53000;45.182;5.736;2023-05-24T03:08:00;99087.09;;;19.39;65.79
66196;BME280;53000;45.182;5.736;2023-05-24T03:10:26;99090.06;;;19.37;66.25
66196;BME280;53000;45.182;5.736;2023-05-24T03:12:51;99102.94;;;19.37;65.99
66196;BME280;53000;45.182;5.736;2023-05-24T03:15:16;99083.13;;;19.35;66.19
66196;BME280;53000;45.182;5.736;2023-05-24T03:17:42;99086.94;;;19.34;66.28
66196;BME280;53000;45.182;5.736;2023-05-24T03:20:07;99090.16;;;19.31;66.56
66196;BME280;53000;45.182;5.736;2023-05-24T03:22:33;99089.38;;;19.24;66.55
66196;BME280;53000;45.182;5.736;2023-05-24T03:24:58;99085.44;;;19.19;66.77
66196;BME280;53000;45.182;5.736;2023-05-24T03:27:23;99081.00;;;19.18;66.25
66196;BME280;53000;45.182;5.736;2023-05-24T03:29:49;99086.72;;;19.17;66.04
66196;BME280;53000;45.182;5.736;2023-05-24T03:32:14;99088.50;;;19.11;65.80
66196;BME280;53000;45.182;5.736;2023-05-24T03:34:39;99090.25;;;19.06;66.20
66196;BME280;53000;45.182;5.736;2023-05-24T03:37:05;99094.91;;;19.05;66.58
66196;BME280;53000;45.182;5.736;2023-05-24T03:39:30;99092.75;;;19.07;65.65
66196;BME280;53000;45.182;5.736;2023-05-24T03:41:55;99091.47;;;19.10;66.22
66196;BME280;53000;45.182;5.736;2023-05-24T03:44:21;99090.97;;;19.13;66.67
66196;BME280;53000;45.182;5.736;2023-05-24T03:46:46;99097.09;;;19.15;66.71
66196;BME280;53000;45.182;5.736;2023-05-24T03:49:11;99101.66;;;19.21;66.18
66196;BME280;53000;45.182;5.736;2023-05-24T03:51:37;99098.91;;;19.21;66.55
66196;BME280;53000;45.182;5.736;2023-05-24T03:54:02;99100.00;;;19.20;66.36
66196;BME280;53000;45.182;5.736;2023-05-24T03:56:27;99096.41;;;19.19;65.88
66196;BME280;53000;45.182;5.736;2023-05-24T03:58:53;99098.78;;;19.16;66.43
66196;BME280;53000;45.182;5.736;2023-05-24T04:01:18;99106.41;;;19.14;66.83
66196;BME280;53000;45.182;5.736;2023-05-24T04:03:44;99096.25;;;19.14;66.89
66196;BME280;53000;45.182;5.736;2023-05-24T04:06:10;99101.03;;;19.19;66.79
66196;BME280;53000;45.182;5.736;2023-05-24T04:08:36;99112.41;;;19.23;66.40
66196;BME280;53000;45.182;5.736;2023-05-24T04:11:01;99107.75;;;19.23;65.93
66196;BME280;53000;45.182;5.736;2023-05-24T04:13:27;99107.13;;;19.21;66.17
66196;BME280;53000;45.182;5.736;2023-05-24T04:15:52;99106.91;;;19.23;65.99
66196;BME280;53000;45.182;5.736;2023-05-24T04:18:17;99108.97;;;19.27;66.17
66196;BME280;53000;45.182;5.736;2023-05-24T04:20:43;99114.97;;;19.36;65.65
66196;BME280;53000;45.182;5.736;2023-05-24T04:23:08;99116.06;;;19.35;65.62
66196;BME280;53000;45.182;5.736;2023-05-24T04:25:33;99107.81;;;19.35;65.82
66196;BME280;53000;45.182;5.736;2023-05-24T04:27:59;99112.00;;;19.37;65.58
66196;BME280;53000;45.182;5.736;2023-05-24T04:30:26;99118.34;;;19.38;65.47
66196;BME280;53000;45.182;5.736;2023-05-24T04:32:54;99117.28;;;19.39;66.04
66196;BME280;53000;45.182;5.736;2023-05-24T04:35:21;99123.38;;;19.41;65.60
66196;BME280;53000;45.182;5.736;2023-05-24T04:37:46;99121.25;;;19.43;65.52
66196;BME280;53000;45.182;5.736;2023-05-24T04:40:13;99119.06;;;19.45;65.83
66196;BME280;53000;45.182;5.736;2023-05-24T04:42:40;99132.56;;;19.47;65.34
66196;BME280;53000;45.182;5.736;2023-05-24T04:45:05;99128.16;;;19.46;65.42
66196;BME280;53000;45.182;5.736;2023-05-24T04:47:31;99129.84;;;19.47;65.24
66196;BME280;53000;45.182;5.736;2023-05-24T04:49:56;99127.09;;;19.47;65.32
66196;BME280;53000;45.182;5.736;2023-05-24T04:52:22;99128.16;;;19.46;65.68
66196;BME280;53000;45.182;5.736;2023-05-24T04:54:47;99131.34;;;19.42;65.96
66196;BME280;53000;45.182;5.736;2023-05-24T04:57:13;99124.00;;;19.43;65.28
66196;BME280;53000;45.182;5.736;2023-05-24T04:59:39;99133.06;;;19.44;65.85
66196;BME280;53000;45.182;5.736;2023-05-24T05:02:04;99130.53;;;19.42;65.55
66196;BME280;53000;45.182;5.736;2023-05-24T05:04:29;99127.09;;;19.47;65.60
66196;BME280;53000;45.182;5.736;2023-05-24T05:06:55;99123.50;;;19.46;65.49
66196;BME280;53000;45.182;5.736;2023-05-24T05:09:20;99132.56;;;19.47;65.71
66196;BME280;53000;45.182;5.736;2023-05-24T05:11:46;99132.78;;;19.45;65.66
66196;BME280;53000;45.182;5.736;2023-05-24T05:14:12;99133.19;;;19.49;65.80
66196;BME280;53000;45.182;5.736;2023-05-24T05:16:38;99132.97;;;19.50;65.70
66196;BME280;53000;45.182;5.736;2023-05-24T05:19:03;99143.25;;;19.55;65.75
66196;BME280;53000;45.182;5.736;2023-05-24T05:21:29;99138.97;;;19.59;65.54
66196;BME280;53000;45.182;5.736;2023-05-24T05:23:57;99137.22;;;19.65;65.51
66196;BME280;53000;45.182;5.736;2023-05-24T05:26:23;99125.53;;;19.69;65.43
66196;BME280;53000;45.182;5.736;2023-05-24T05:28:48;99128.91;;;19.71;65.42
66196;BME280;53000;45.182;5.736;2023-05-24T05:31:13;99132.28;;;19.73;65.21
66196;BME280;53000;45.182;5.736;2023-05-24T05:33:39;99122.34;;;19.72;64.89
66196;BME280;53000;45.182;5.736;2023-05-24T05:36:04;99139.19;;;19.76;64.75
66196;BME280;53000;45.182;5.736;2023-05-24T05:38:30;99129.88;;;19.77;65.00
66196;BME280;53000;45.182;5.736;2023-05-24T05:40:55;99135.75;;;19.80;64.85
66196;BME280;53000;45.182;5.736;2023-05-24T05:43:21;99131.47;;;19.85;64.76
66196;BME280;53000;45.182;5.736;2023-05-24T05:45:46;99135.19;;;19.90;64.67
66196;BME280;53000;45.182;5.736;2023-05-24T05:48:11;99138.06;;;19.95;64.48
66196;BME280;53000;45.182;5.736;2023-05-24T05:50:36;99140.81;;;19.95;64.55
66196;BME280;53000;45.182;5.736;2023-05-24T05:53:02;99134.50;;;19.95;65.03
66196;BME280;53000;45.182;5.736;2023-05-24T05:55:27;99134.38;;;20.01;65.35
66196;BME280;53000;45.182;5.736;2023-05-24T05:57:53;99131.16;;;20.05;65.28
66196;BME280;53000;45.182;5.736;2023-05-24T06:00:18;99132.38;;;20.09;65.26
66196;BME280;53000;45.182;5.736;2023-05-24T06:02:44;99127.47;;;20.11;65.13
66196;BME280;53000;45.182;5.736;2023-05-24T06:05:10;99128.91;;;20.13;65.30
66196;BME280;53000;45.182;5.736;2023-05-24T06:07:35;99134.78;;;20.17;65.35
66196;BME280;53000;45.182;5.736;2023-05-24T06:10:02;99135.75;;;20.22;65.36
66196;BME280;53000;45.182;5.736;2023-05-24T06:12:28;99135.28;;;20.26;65.29
66196;BME280;53000;45.182;5.736;2023-05-24T06:14:53;99134.22;;;20.27;65.28
66196;BME280;53000;45.182;5.736;2023-05-24T06:17:21;99131.31;;;20.21;64.51
66196;BME280;53000;45.182;5.736;2023-05-24T06:19:49;99129.06;;;20.18;64.05
66196;BME280;53000;45.182;5.736;2023-05-24T06:22:15;99131.44;;;20.15;63.39
66196;BME280;53000;45.182;5.736;2023-05-24T06:24:41;99132.50;;;20.14;62.86
66196;BME280;53000;45.182;5.736;2023-05-24T06:27:07;99140.97;;;20.12;62.78
66196;BME280;53000;45.182;5.736;2023-05-24T06:29:33;99134.66;;;20.12;62.36
66196;BME280;53000;45.182;5.736;2023-05-24T06:31:58;99125.44;;;20.06;62.02
66196;BME280;53000;45.182;5.736;2023-05-24T06:34:23;99132.47;;;20.02;62.07
66196;BME280;53000;45.182;5.736;2023-05-24T06:36:49;99129.81;;;19.95;62.29
66196;BME280;53000;45.182;5.736;2023-05-24T06:39:17;99131.25;;;19.98;62.53
66196;BME280;53000;45.182;5.736;2023-05-24T06:41:43;99136.53;;;19.99;62.35
66196;BME280;53000;45.182;5.736;2023-05-24T06:44:10;99139.72;;;19.96;62.10
66196;BME280;53000;45.182;5.736;2023-05-24T06:46:35;99143.09;;;19.98;62.19
66196;BME280;53000;45.182;5.736;2023-05-24T06:49:01;99137.97;;;20.02;62.02
66196;BME280;53000;45.182;5.736;2023-05-24T06:51:27;99145.59;;;20.00;61.71
66196;BME280;53000;45.182;5.736;2023-05-24T06:53:52;99147.91;;;20.03;61.94
66196;BME280;53000;45.182;5.736;2023-05-24T06:56:18;99139.41;;;20.05;61.74
66196;BME280;53000;45.182;5.736;2023-05-24T06:58:43;99142.97;;;20.05;61.72
66196;BME280;53000;45.182;5.736;2023-05-24T07:01:09;99151.47;;;20.04;61.85
66196;BME280;53000;45.182;5.736;2023-05-24T07:03:34;99141.44;;;20.09;61.88
66196;BME280;53000;45.182;5.736;2023-05-24T07:06:00;99146.00;;;20.15;61.40
66196;BME280;53000;45.182;5.736;2023-05-24T07:08:26;99149.13;;;20.19;61.20
66196;BME280;53000;45.182;5.736;2023-05-24T07:10:52;99150.78;;;20.20;60.86
66196;BME280;53000;45.182;5.736;2023-05-24T07:13:18;99149.13;;;20.19;61.23
66196;BME280;53000;45.182;5.736;2023-05-24T07:15:45;99151.66;;;20.20;60.90
66196;BME280;53000;45.182;5.736;2023-05-24T07:18:11;99156.06;;;20.21;61.25
66196;BME280;53000;45.182;5.736;2023-05-24T07:20:36;99153.78;;;20.18;61.16
66196;BME280;53000;45.182;5.736;2023-05-24T07:23:02;99152.94;;;20.18;60.39
66196;BME280;53000;45.182;5.736;2023-05-24T07:25:28;99157.84;;;20.16;60.86
66196;BME280;53000;45.182;5.736;2023-05-24T07:27:53;99155.78;;;20.11;60.77
66196;BME280;53000;45.182;5.736;2023-05-24T07:30:19;99155.19;;;20.09;61.01
66196;BME280;53000;45.182;5.736;2023-05-24T07:32:44;99159.63;;;20.10;61.00
66196;BME280;53000;45.182;5.736;2023-05-24T07:35:10;99165.09;;;20.10;60.57
66196;BME280;53000;45.182;5.736;2023-05-24T07:37:40;99156.50;;;20.07;61.15
66196;BME280;53000;45.182;5.736;2023-05-24T07:40:07;99167.25;;;20.08;60.72
66196;BME280;53000;45.182;5.736;2023-05-24T07:42:38;99170.00;;;20.08;60.72
66196;BME280;53000;45.182;5.736;2023-05-24T07:45:07;99169.78;;;20.10;60.39
66196;BME280;53000;45.182;5.736;2023-05-24T07:47:33;99173.34;;;20.10;60.66
66196;BME280;53000;45.182;5.736;2023-05-24T07:49:59;99182.66;;;20.09;60.56
66196;BME280;53000;45.182;5.736;2023-05-24T07:52:24;99175.94;;;20.05;60.63
66196;BME280;53000;45.182;5.736;2023-05-24T07:54:50;99178.69;;;20.05;60.75
66196;BME280;53000;45.182;5.736;2023-05-24T07:57:17;99181.00;;;20.08;60.77
66196;BME280;53000;45.182;5.736;2023-05-24T07:59:43;99176.94;;;20.11;60.79
66196;BME280;53000;45.182;5.736;2023-05-24T08:02:08;99177.91;;;20.16;60.44
66196;BME280;53000;45.182;5.736;2023-05-24T08:04:36;99171.34;;;20.17;60.53
66196;BME280;53000;45.182;5.736;2023-05-24T08:07:01;99178.03;;;20.21;60.18
66196;BME280;53000;45.182;5.736;2023-05-24T08:09:27;99172.91;;;20.25;60.00
66196;BME280;53000;45.182;5.736;2023-05-24T08:12:00;99180.22;;;20.31;60.11
66196;BME280;53000;45.182;5.736;2023-05-24T08:14:26;99172.69;;;20.38;60.03
66196;BME280;53000;45.182;5.736;2023-05-24T08:16:51;99170.94;;;20.44;60.17
66196;BME280;53000;45.182;5.736;2023-05-24T08:19:16;99173.91;;;20.54;59.94
66196;BME280;53000;45.182;5.736;2023-05-24T08:21:42;99178.88;;;20.64;59.36
66196;BME280;53000;45.182;5.736;2023-05-24T08:24:07;99178.97;;;20.69;58.94
66196;BME280;53000;45.182;5.736;2023-05-24T08:26:33;99185.69;;;20.73;59.03
66196;BME280;53000;45.182;5.736;2023-05-24T08:28:58;99177.44;;;20.73;58.94
66196;BME280;53000;45.182;5.736;2023-05-24T08:31:23;99176.13;;;20.76;59.05
66196;BME280;53000;45.182;5.736;2023-05-24T08:33:49;99182.34;;;20.83;58.92
66196;BME280;53000;45.182;5.736;2023-05-24T08:36:16;99185.59;;;20.92;58.64
66196;BME280;53000;45.182;5.736;2023-05-24T08:38:41;99188.44;;;20.97;58.63
66196;BME280;53000;45.182;5.736;2023-05-24T08:41:09;99175.41;;;21.04;58.51
66196;BME280;53000;45.182;5.736;2023-05-24T08:43:36;99175.63;;;21.14;58.94
66196;BME280;53000;45.182;5.736;2023-05-24T08:46:03;99178.00;;;21.22;58.41
66196;BME280;53000;45.182;5.736;2023-05-24T08:48:29;99184.56;;;21.33;58.13
66196;BME280;53000;45.182;5.736;2023-05-24T08:50:56;99180.84;;;21.39;58.25
66196;BME280;53000;45.182;5.736;2023-05-24T08:53:22;99176.56;;;21.43;57.15
66196;BME280;53000;45.182;5.736;2023-05-24T08:55:49;99186.38;;;21.51;57.17
66196;BME280;53000;45.182;5.736;2023-05-24T08:58:18;99193.69;;;21.57;56.91
66196;BME280;53000;45.182;5.736;2023-05-24T09:00:44;99190.78;;;21.64;57.13
66196;BME280;53000;45.182;5.736;2023-05-24T09:03:10;99195.78;;;21.67;56.47
66196;BME280;53000;45.182;5.736;2023-05-24T09:05:36;99190.63;;;21.71;56.96
66196;BME280;53000;45.182;5.736;2023-05-24T09:08:01;99186.91;;;21.77;56.59
66196;BME280;53000;45.182;5.736;2023-05-24T09:10:28;99190.50;;;21.77;57.13
66196;BME280;53000;45.182;5.736;2023-05-24T09:12:55;99198.53;;;21.79;56.79
66196;BME280;53000;45.182;5.736;2023-05-24T09:15:22;99196.38;;;21.81;56.21
66196;BME280;53000;45.182;5.736;2023-05-24T09:17:47;99194.66;;;21.80;56.51
66196;BME280;53000;45.182;5.736;2023-05-24T09:20:13;99201.88;;;21.81;55.63
66196;BME280;53000;45.182;5.736;2023-05-24T09:22:40;99197.19;;;21.81;55.83
66196;BME280;53000;45.182;5.736;2023-05-24T09:25:07;99202.44;;;21.83;55.95
66196;BME280;53000;45.182;5.736;2023-05-24T09:27:34;99202.44;;;21.83;56.59
66196;BME280;53000;45.182;5.736;2023-05-24T09:30:00;99200.91;;;21.75;56.39
66196;BME280;53000;45.182;5.736;2023-05-24T09:32:26;99190.50;;;21.65;56.00
66196;BME280;53000;45.182;5.736;2023-05-24T09:34:54;99185.50;;;21.62;55.98
66196;BME280;53000;45.182;5.736;2023-05-24T09:37:21;99194.59;;;21.63;56.08
66196;BME280;53000;45.182;5.736;2023-05-24T09:39:49;99183.81;;;21.61;56.24
66196;BME280;53000;45.182;5.736;2023-05-24T09:42:22;99184.69;;;21.62;56.12
66196;BME280;53000;45.182;5.736;2023-05-24T09:45:03;99187.63;;;21.72;56.34
66196;BME280;53000;45.182;5.736;2023-05-24T09:47:37;99179.91;;;21.86;56.32
66196;BME280;53000;45.182;5.736;2023-05-24T09:50:05;99184.22;;;21.94;55.67
66196;BME280;53000;45.182;5.736;2023-05-24T09:52:35;99182.13;;;22.01;55.72
66196;BME280;53000;45.182;5.736;2023-05-24T09:55:16;99189.50;;;22.12;54.88
66196;BME280;53000;45.182;5.736;2023-05-24T09:57:43;99180.47;;;22.17;54.06
66196;BME280;53000;45.182;5.736;2023-05-24T10:00:09;99187.91;;;22.28;55.02
66196;BME280;53000;45.182;5.736;2023-05-24T10:02:45;99188.66;;;22.40;53.94
66196;BME280;53000;45.182;5.736;2023-05-24T10:05:11;99192.09;;;22.48;53.30
66196;BME280;53000;45.182;5.736;2023-05-24T10:07:39;99192.44;;;22.51;52.78
66196;BME280;53000;45.182;5.736;2023-05-24T10:10:05;99191.44;;;22.57;54.35
66196;BME280;53000;45.182;5.736;2023-05-24T10:12:33;99192.44;;;22.68;53.67
66196;BME280;53000;45.182;5.736;2023-05-24T10:14:59;99184.16;;;22.85;53.80
66196;BME280;53000;45.182;5.736;2023-05-24T10:17:24;99193.38;;;23.08;53.12
66196;BME280;53000;45.182;5.736;2023-05-24T10:19:52;99188.69;;;23.30;52.73
66196;BME280;53000;45.182;5.736;2023-05-24T10:22:19;99194.19;;;23.47;52.32
66196;BME280;53000;45.182;5.736;2023-05-24T10:24:49;99189.22;;;23.71;52.38
66196;BME280;53000;45.182;5.736;2023-05-24T10:27:21;99190.47;;;24.02;49.93
66196;BME280;53000;45.182;5.736;2023-05-24T10:30:00;99191.75;;;24.22;50.13
66196;BME280;53000;45.182;5.736;2023-05-24T10:32:32;99199.69;;;24.40;50.52
66196;BME280;53000;45.182;5.736;2023-05-24T10:35:00;99191.34;;;24.62;50.46
66196;BME280;53000;45.182;5.736;2023-05-24T10:37:27;99187.81;;;24.72;50.15
66196;BME280;53000;45.182;5.736;2023-05-24T10:39:52;99189.28;;;24.85;48.69
66196;BME280;53000;45.182;5.736;2023-05-24T10:42:18;99192.94;;;24.90;50.18
66196;BME280;53000;45.182;5.736;2023-05-24T10:44:44;99190.75;;;24.93;49.49
66196;BME280;53000;45.182;5.736;2023-05-24T10:47:11;99196.50;;;24.86;49.33
66196;BME280;53000;45.182;5.736;2023-05-24T10:49:38;99188.44;;;24.79;48.74
66196;BME280;53000;45.182;5.736;2023-05-24T10:52:11;99187.81;;;24.72;47.92
66196;BME280;53000;45.182;5.736;2023-05-24T10:54:37;99181.75;;;24.75;48.42
66196;BME280;53000;45.182;5.736;2023-05-24T10:57:03;99183.53;;;24.92;47.77
66196;BME280;53000;45.182;5.736;2023-05-24T10:59:37;99182.78;;;25.06;48.56
66196;BME280;53000;45.182;5.736;2023-05-24T11:02:08;99177.09;;;25.23;49.02
66196;BME280;53000;45.182;5.736;2023-05-24T11:04:45;99179.13;;;25.33;47.57
66196;BME280;53000;45.182;5.736;2023-05-24T11:07:13;99180.25;;;25.37;48.24
66196;BME280;53000;45.182;5.736;2023-05-24T11:09:40;99178.53;;;25.31;47.11
66196;BME280;53000;45.182;5.736;2023-05-24T11:12:18;99178.25;;;25.27;46.69
66196;BME280;53000;45.182;5.736;2023-05-24T11:14:49;99181.88;;;25.28;46.80
66196;BME280;53000;45.182;5.736;2023-05-24T11:17:15;99174.66;;;25.32;47.25
66196;BME280;53000;45.182;5.736;2023-05-24T11:19:52;99177.16;;;25.34;46.34
66196;BME280;53000;45.182;5.736;2023-05-24T11:22:19;99165.53;;;25.32;47.17
66196;BME280;53000;45.182;5.736;2023-05-24T11:24:45;99177.75;;;25.36;47.38
66196;BME280;53000;45.182;5.736;2023-05-24T11:27:12;99160.84;;;25.37;46.12
66196;BME280;53000;45.182;5.736;2023-05-24T11:29:42;99162.25;;;25.40;47.33
66196;BME280;53000;45.182;5.736;2023-05-24T11:32:08;99163.69;;;25.53;46.10
66196;BME280;53000;45.182;5.736;2023-05-24T11:34:34;99152.91;;;25.56;45.32
66196;BME280;53000;45.182;5.736;2023-05-24T11:37:01;99140.41;;;25.54;45.98
66196;BME280;53000;45.182;5.736;2023-05-24T11:39:34;99146.75;;;25.49;46.62
66196;BME280;53000;45.182;5.736;2023-05-24T11:42:03;99141.50;;;25.47;45.99
66196;BME280;53000;45.182;5.736;2023-05-24T11:44:30;99143.72;;;25.50;47.06
66196;BME280;53000;45.182;5.736;2023-05-24T11:46:57;99141.22;;;25.49;46.22
66196;BME280;53000;45.182;5.736;2023-05-24T11:49:23;99140.66;;;25.47;45.34
66196;BME280;53000;45.182;5.736;2023-05-24T11:51:48;99138.94;;;25.36;45.37
66196;BME280;53000;45.182;5.736;2023-05-24T11:54:17;99135.56;;;25.23;45.66
66196;BME280;53000;45.182;5.736;2023-05-24T11:56:43;99143.50;;;25.15;45.85
66196;BME280;53000;45.182;5.736;2023-05-24T12:01:46;99126.00;;;24.99;46.57
66196;BME280;53000;45.182;5.736;2023-05-24T12:04:12;99121.53;;;24.93;46.70
66196;BME280;53000;45.182;5.736;2023-05-24T12:06:41;99120.63;;;24.82;46.31
66196;BME280;53000;45.182;5.736;2023-05-24T12:09:08;99113.63;;;24.69;46.57
66196;BME280;53000;45.182;5.736;2023-05-24T12:11:39;99115.72;;;24.57;46.40
66196;BME280;53000;45.182;5.736;2023-05-24T12:14:06;99109.53;;;24.44;47.10
66196;BME280;53000;45.182;5.736;2023-05-24T12:16:31;99112.00;;;24.41;47.16
66196;BME280;53000;45.182;5.736;2023-05-24T12:18:58;99113.63;;;24.37;47.67
66196;BME280;53000;45.182;5.736;2023-05-24T12:21:24;99103.34;;;24.32;47.73
66196;BME280;53000;45.182;5.736;2023-05-24T12:23:50;99095.28;;;24.25;47.36
66196;BME280;53000;45.182;5.736;2023-05-24T12:26:17;99108.31;;;24.30;47.63
66196;BME280;53000;45.182;5.736;2023-05-24T12:28:44;99095.09;;;24.37;47.84
66196;BME280;53000;45.182;5.736;2023-05-24T12:31:09;99093.47;;;24.41;47.30
66196;BME280;53000;45.182;5.736;2023-05-24T12:33:35;99084.06;;;24.42;47.25
66196;BME280;53000;45.182;5.736;2023-05-24T12:36:01;99085.16;;;24.41;47.28
66196;BME280;53000;45.182;5.736;2023-05-24T12:38:27;99081.88;;;24.44;47.95
66196;BME280;53000;45.182;5.736;2023-05-24T12:40:53;99073.84;;;24.48;47.69
66196;BME280;53000;45.182;5.736;2023-05-24T12:43:19;99076.47;;;24.60;48.07
66196;BME280;53000;45.182;5.736;2023-05-24T12:45:45;99079.84;;;24.67;47.56
66196;BME280;53000;45.182;5.736;2023-05-24T12:48:11;99072.97;;;24.75;47.51
66196;BME280;53000;45.182;5.736;2023-05-24T12:50:37;99081.28;;;24.80;47.70
66196;BME280;53000;45.182;5.736;2023-05-24T12:53:02;99072.19;;;24.84;46.52
66196;BME280;53000;45.182;5.736;2023-05-24T12:55:28;99068.28;;;24.75;47.05
66196;BME280;53000;45.182;5.736;2023-05-24T12:57:54;99072.34;;;24.62;46.97
66196;BME280;53000;45.182;5.736;2023-05-24T13:00:27;99066.97;;;24.51;47.59
66196;BME280;53000;45.182;5.736;2023-05-24T13:02:54;99049.75;;;24.43;47.74
66196;BME280;53000;45.182;5.736;2023-05-24T13:05:27;99065.22;;;24.39;47.51
66196;BME280;53000;45.182;5.736;2023-05-24T13:07:54;99043.88;;;24.29;47.12
66196;BME280;53000;45.182;5.736;2023-05-24T13:10:23;99042.31;;;24.06;47.58